Time;durP1;ratioP1;P1;durP2;ratioP2;P2;SDS_P1;SDS_P2;PMS_P1;PMS_P2;Temp;Humidity;BMP_temperature;BMP_pressure;BME280_temperature;BME280_humidity;BME280_pressure;Samples;Min_cycle;Max_cycle;Signal;HPM_P1;HPM_P2
2021/06/09 00:01:49;;;;;;;3.40;1.58;;;19.90;54.10;;;;;;5004910;28;20172;-75
2021/06/09 00:04:33;;;;;;;2.30;1.35;;;19.90;54.00;;;;;;5003367;28;20108;-75
2021/06/09 00:07:17;;;;;;;2.25;1.50;;;19.80;54.70;;;;;;5011971;28;20052;-75
2021/06/09 00:10:03;;;;;;;2.00;1.30;;;19.80;54.20;;;;;;5029923;28;20099;-75
2021/06/09 00:12:47;;;;;;;2.03;1.40;;;19.80;54.20;;;;;;4999698;28;20035;-75
2021/06/09 00:15:31;;;;;;;1.83;1.48;;;19.80;54.30;;;;;;5013045;28;20080;-75
2021/06/09 00:18:15;;;;;;;1.83;1.40;;;19.80;54.40;;;;;;5007009;28;20114;-74
2021/06/09 00:20:59;;;;;;;2.00;1.40;;;19.80;55.00;;;;;;4997490;28;20299;-74
2021/06/09 00:23:44;;;;;;;2.33;1.40;;;19.80;55.10;;;;;;5007559;28;20398;-74
2021/06/09 00:26:28;;;;;;;2.15;1.40;;;19.80;55.60;;;;;;5012367;28;20076;-73
2021/06/09 00:29:13;;;;;;;2.20;1.52;;;19.80;55.60;;;;;;5012914;28;20584;-72
2021/06/09 00:31:57;;;;;;;2.22;1.42;;;19.80;55.40;;;;;;5002395;28;20096;-73
2021/06/09 00:34:41;;;;;;;1.53;1.20;;;19.80;55.20;;;;;;5032635;28;20049;-72
2021/06/09 00:37:24;;;;;;;2.78;1.85;;;19.80;55.40;;;;;;5013089;28;20296;-72
2021/06/09 00:40:11;;;;;;;2.47;1.60;;;19.70;55.20;;;;;;5012199;28;20104;-73
2021/06/09 00:43:19;;;;;;;2.03;1.30;;;19.70;55.30;;;;;;5013202;28;20691;-74
2021/06/09 00:46:06;;;;;;;1.80;1.30;;;19.60;55.30;;;;;;5012050;28;20123;-73
2021/06/09 00:48:50;;;;;;;2.30;1.30;;;19.60;55.40;;;;;;5027762;28;20052;-72
2021/06/09 00:51:35;;;;;;;2.80;1.30;;;19.60;55.60;;;;;;5018742;28;20072;-73
2021/06/09 00:54:19;;;;;;;;;;;19.50;55.50;;;;;;5011888;28;20100;-73
2021/06/09 00:57:05;;;;;;;1.85;1.15;;;19.50;55.30;;;;;;5003786;28;20297;-73
2021/06/09 00:59:49;;;;;;;1.63;1.40;;;19.40;55.50;;;;;;5032846;28;20033;-73
2021/06/09 01:02:33;;;;;;;7.53;1.70;;;19.40;55.90;;;;;;5012922;28;20068;-72
2021/06/09 01:05:17;;;;;;;1.45;1.23;;;19.50;56.10;;;;;;5016349;28;20112;-73
2021/06/09 01:08:06;;;;;;;3.23;1.40;;;19.40;56.10;;;;;;5015019;28;20052;-72
2021/06/09 01:10:51;;;;;;;2.47;1.33;;;19.40;56.60;;;;;;5007958;28;20056;-72
2021/06/09 01:13:35;;;;;;;3.45;1.50;;;19.40;56.70;;;;;;5020180;28;20160;-72
2021/06/09 01:16:22;;;;;;;1.70;1.35;;;19.40;56.70;;;;;;5026923;28;20041;-73
2021/06/09 01:19:06;;;;;;;2.80;1.50;;;19.40;56.80;;;;;;5043161;28;20063;-74
2021/06/09 01:21:51;;;;;;;1.70;1.30;;;19.40;56.70;;;;;;5033680;28;20056;-75
2021/06/09 01:24:35;;;;;;;2.88;1.50;;;19.40;56.70;;;;;;5021995;28;20065;-75
2021/06/09 01:27:23;;;;;;;3.05;1.50;;;19.40;56.70;;;;;;5021430;28;20029;-75
2021/06/09 01:30:10;;;;;;;4.55;2.22;;;19.30;56.90;;;;;;5021910;28;20049;-74
2021/06/09 01:32:54;;;;;;;4.75;1.80;;;19.40;56.90;;;;;;5027626;28;20036;-74
2021/06/09 01:35:39;;;;;;;2.83;1.50;;;19.30;56.90;;;;;;5021883;28;20041;-75
2021/06/09 01:38:23;;;;;;;2.10;1.48;;;19.30;57.00;;;;;;4993441;28;20161;-74
2021/06/09 01:41:07;;;;;;;2.73;1.60;;;19.30;57.10;;;;;;5006963;28;20440;-75
2021/06/09 01:43:52;;;;;;;2.00;1.55;;;19.30;57.20;;;;;;5032037;28;20893;-71
2021/06/09 01:46:36;;;;;;;2.58;1.50;;;19.20;57.50;;;;;;5004302;28;20092;-71
2021/06/09 01:49:21;;;;;;;2.83;1.75;;;19.20;57.40;;;;;;4992842;28;20044;-72
2021/06/09 01:52:02;;;;;;;4.20;1.80;;;19.20;58.00;;;;;;5009071;28;20069;-72
2021/06/09 01:54:47;;;;;;;3.33;1.85;;;19.20;57.60;;;;;;4997275;28;20089;-74
2021/06/09 01:57:31;;;;;;;3.90;1.73;;;19.10;57.80;;;;;;5001288;28;20160;-74
2021/06/09 02:00:24;;;;;;;2.60;1.57;;;19.10;57.90;;;;;;5013564;28;20036;-68
2021/06/09 02:03:11;;;;;;;2.10;1.63;;;19.10;58.30;;;;;;5001087;28;20522;-68
2021/06/09 02:05:55;;;;;;;4.88;1.85;;;19.10;58.30;;;;;;5019027;28;20070;-68
2021/06/09 02:08:39;;;;;;;3.13;1.80;;;19.00;58.10;;;;;;5011060;28;20116;-68
2021/06/09 02:11:23;;;;;;;2.88;1.85;;;19.00;58.60;;;;;;5015598;28;20185;-68
2021/06/09 02:14:08;;;;;;;2.87;1.80;;;19.00;58.80;;;;;;5012075;28;20394;-69
2021/06/09 02:16:53;;;;;;;4.43;1.70;;;18.90;59.00;;;;;;5010652;28;20036;-69
2021/06/09 02:19:37;;;;;;;5.97;1.90;;;18.90;59.10;;;;;;5010470;28;20092;-69
2021/06/09 02:22:21;;;;;;;3.30;2.00;;;18.90;59.20;;;;;;5023242;28;20291;-69
2021/06/09 02:25:06;;;;;;;6.03;1.83;;;18.90;59.30;;;;;;5004265;28;20049;-72
2021/06/09 02:27:51;;;;;;;3.88;1.70;;;18.90;59.50;;;;;;5027422;28;20142;-71
2021/06/09 02:30:35;;;;;;;2.97;2.10;;;18.80;59.90;;;;;;5019950;28;20045;-72
2021/06/09 02:33:21;;;;;;;3.08;2.00;;;18.80;59.90;;;;;;5005576;28;20169;-72
2021/06/09 02:36:05;;;;;;;3.05;2.17;;;18.70;59.70;;;;;;5023516;28;20047;-71
2021/06/09 02:38:50;;;;;;;3.30;2.10;;;18.70;60.40;;;;;;5019900;28;20037;-72
2021/06/09 02:41:35;;;;;;;3.10;1.88;;;18.70;60.20;;;;;;5032645;28;20124;-73
2021/06/09 02:44:19;;;;;;;3.20;2.00;;;18.70;60.40;;;;;;5015082;28;20136;-73
2021/06/09 02:47:04;;;;;;;2.83;2.00;;;18.70;60.70;;;;;;5014812;28;20040;-73
2021/06/09 02:49:49;;;;;;;4.03;1.98;;;18.60;61.20;;;;;;5004040;28;20045;-73
2021/06/09 02:52:49;;;;;;;3.13;1.95;;;18.60;61.40;;;;;;5014689;28;20041;-71
2021/06/09 02:55:54;;;;;;;3.88;2.35;;;18.60;61.90;;;;;;5015049;28;20040;-71
2021/06/09 02:58:57;;;;;;;5.35;2.28;;;18.50;62.30;;;;;;5021498;28;20045;-70
2021/06/09 03:02:03;;;;;;;5.55;2.40;;;18.60;62.60;;;;;;5009747;28;20169;-70
2021/06/09 03:05:05;;;;;;;3.88;2.22;;;18.60;62.50;;;;;;5031857;28;20124;-69
2021/06/09 03:08:12;;;;;;;3.35;2.28;;;18.50;62.60;;;;;;5026941;28;20036;-69
2021/06/09 03:11:22;;;;;;;3.00;2.30;;;18.50;62.70;;;;;;5015068;28;20029;-69
2021/06/09 03:17:27;;;;;;;3.40;2.22;;;18.50;62.90;;;;;;5012182;28;20106;-71
2021/06/09 03:20:41;;;;;;;5.20;2.60;;;18.50;62.90;;;;;;5013604;28;20445;-71
2021/06/09 03:23:43;;;;;;;6.03;2.90;;;18.40;63.40;;;;;;5008739;28;20053;-71
2021/06/09 03:26:39;;;;;;;3.97;2.22;;;18.50;63.60;;;;;;5014672;28;20104;-71
2021/06/09 03:29:56;;;;;;;6.50;2.30;;;18.40;63.40;;;;;;5027647;28;20108;-71
2021/06/09 03:32:52;;;;;;;6.55;2.33;;;18.40;64.10;;;;;;5027685;28;20045;-71
2021/06/09 03:35:49;;;;;;;3.45;2.38;;;18.40;64.50;;;;;;5013797;28;20032;-71
2021/06/09 03:38:47;;;;;;;4.82;2.08;;;18.50;64.30;;;;;;5019251;28;20032;-71
2021/06/09 03:41:42;;;;;;;3.58;2.30;;;18.50;64.90;;;;;;5033329;28;20110;-71
2021/06/09 03:44:42;;;;;;;4.28;1.98;;;18.50;65.10;;;;;;5025923;28;20178;-72
2021/06/09 03:47:27;;;;;;;4.90;1.83;;;18.60;65.20;;;;;;5023318;28;20057;-73
2021/06/09 03:50:14;;;;;;;4.15;2.25;;;18.60;65.20;;;;;;5013223;28;20096;-72
2021/06/09 03:52:53;;;;;;;2.97;1.75;;;18.60;65.30;;;;;;5002426;28;20044;-71
2021/06/09 03:55:39;;;;;;;3.17;1.90;;;18.60;65.20;;;;;;5014192;28;20096;-75
2021/06/09 03:58:25;;;;;;;4.63;2.15;;;18.60;65.70;;;;;;5013058;28;20032;-78
2021/06/09 04:01:11;;;;;;;5.68;2.17;;;18.70;65.60;;;;;;5017694;28;20029;-74
2021/06/09 04:03:58;;;;;;;6.43;2.03;;;18.80;64.20;;;;;;5026174;28;20095;-79
2021/06/09 04:06:44;;;;;;;2.58;1.70;;;18.80;64.60;;;;;;5019868;28;20497;-79
2021/06/09 04:09:28;;;;;;;3.45;1.88;;;18.80;64.60;;;;;;5007769;28;20037;-80
2021/06/09 04:12:13;;;;;;;;;;;18.90;64.80;;;;;;5020971;28;20504;-80
2021/06/09 04:15:00;;;;;;;4.28;2.17;;;19.00;64.30;;;;;;5013392;28;19912;-79
2021/06/09 04:17:47;;;;;;;3.33;1.90;;;19.00;64.00;;;;;;5008473;28;20060;-80
2021/06/09 04:20:33;;;;;;;4.15;2.08;;;19.00;64.60;;;;;;5013381;28;20033;-79
2021/06/09 04:23:17;;;;;;;5.28;2.20;;;19.10;64.70;;;;;;5001545;28;20467;-79
2021/06/09 04:26:02;;;;;;;2.65;1.80;;;19.10;65.10;;;;;;5017052;28;20095;-79
2021/06/09 04:28:47;;;;;;;4.03;1.92;;;19.20;65.10;;;;;;5017661;28;20803;-79
2021/06/09 04:31:32;;;;;;;3.05;2.05;;;19.20;65.30;;;;;;5013843;28;20040;-78
2021/06/09 04:34:16;;;;;;;4.53;2.10;;;19.20;65.30;;;;;;5012240;28;20048;-78
2021/06/09 04:37:01;;;;;;;3.42;1.90;;;19.30;64.90;;;;;;5025554;28;20156;-78
2021/06/09 04:39:47;;;;;;;3.42;2.00;;;19.30;64.70;;;;;;4993596;28;20047;-78
2021/06/09 04:42:32;;;;;;;3.50;2.35;;;19.40;65.00;;;;;;5010183;28;20092;-76
2021/06/09 04:45:18;;;;;;;2.70;1.90;;;19.40;65.10;;;;;;5010895;28;20049;-77
2021/06/09 04:48:09;;;;;;;2.58;2.00;;;19.50;64.70;;;;;;5000298;28;20163;-74
2021/06/09 04:50:53;;;;;;;4.65;2.13;;;19.50;63.70;;;;;;5019476;28;20171;-75
2021/06/09 04:53:37;;;;;;;3.42;2.00;;;19.50;64.30;;;;;;5017633;28;20088;-76
2021/06/09 04:56:21;;;;;;;3.23;2.20;;;19.60;64.20;;;;;;5011636;28;20107;-77
2021/06/09 04:59:07;;;;;;;5.10;2.93;;;19.60;64.40;;;;;;5011341;28;20040;-76
2021/06/09 05:01:51;;;;;;;3.05;2.00;;;19.60;63.60;;;;;;5013968;28;20437;-75
2021/06/09 05:04:35;;;;;;;2.95;2.10;;;19.70;64.20;;;;;;4992625;28;20050;-75
2021/06/09 05:07:19;;;;;;;3.10;1.97;;;19.80;63.50;;;;;;5009676;28;20565;-75
2021/06/09 05:10:04;;;;;;;2.87;2.10;;;19.80;62.80;;;;;;5013448;28;20322;-75
2021/06/09 05:12:56;;;;;;;2.38;1.75;;;19.90;62.50;;;;;;5011874;28;20296;-75
2021/06/09 05:15:46;;;;;;;3.60;2.10;;;19.90;62.10;;;;;;5010434;28;20075;-78
2021/06/09 05:18:37;;;;;;;2.83;1.70;;;19.90;62.80;;;;;;5007598;28;20084;-78
2021/06/09 05:21:28;;;;;;;13.77;2.95;;;19.90;62.60;;;;;;5023263;28;20044;-77
2021/06/09 05:24:13;;;;;;;5.38;2.00;;;20.00;62.90;;;;;;5013226;28;20037;-75
2021/06/09 05:26:57;;;;;;;;;;;20.00;62.70;;;;;;5032066;28;20378;-75
2021/06/09 05:29:45;;;;;;;7.60;2.50;;;20.10;62.60;;;;;;5000596;28;19916;-75
2021/06/09 05:32:30;;;;;;;4.53;2.58;;;20.20;62.50;;;;;;5011544;28;20068;-75
2021/06/09 05:35:17;;;;;;;4.90;2.10;;;20.10;62.40;;;;;;5011971;28;20123;-75
2021/06/09 05:38:03;;;;;;;4.72;2.30;;;20.20;61.80;;;;;;5011077;28;20045;-75
2021/06/09 05:40:48;;;;;;;3.35;2.22;;;20.20;62.00;;;;;;4992542;28;20033;-75
2021/06/09 05:43:33;;;;;;;9.35;2.20;;;20.30;61.80;;;;;;5003628;28;20037;-76
2021/06/09 05:46:18;;;;;;;4.43;2.10;;;20.40;61.70;;;;;;5010566;28;20091;-75
2021/06/09 05:49:02;;;;;;;;;;;20.40;61.70;;;;;;5010794;28;20128;-75
2021/06/09 05:51:49;;;;;;;3.65;1.77;;;20.50;61.70;;;;;;5010415;28;19944;-76
2021/06/09 05:54:14;;;;;;;4.55;2.00;;;20.50;60.40;;;;;;4994339;28;20053;-78
2021/06/09 05:57:00;;;;;;;4.93;2.42;;;20.50;60.60;;;;;;5008399;28;20041;-77
2021/06/09 05:59:45;;;;;;;5.18;2.50;;;20.60;60.60;;;;;;4996210;28;20045;-75
2021/06/09 06:02:30;;;;;;;4.78;2.15;;;20.60;60.90;;;;;;5011292;28;20509;-75
2021/06/09 06:05:16;;;;;;;2.60;1.80;;;20.70;60.20;;;;;;5011008;28;20061;-74
2021/06/09 06:08:00;;;;;;;4.53;2.00;;;20.70;59.80;;;;;;5009953;28;20101;-76
2021/06/09 06:10:47;;;;;;;7.00;2.30;;;20.70;59.40;;;;;;5002827;28;20109;-75
2021/06/09 06:13:32;;;;;;;5.78;2.33;;;20.80;60.30;;;;;;4999438;28;20092;-74
2021/06/09 06:15:58;;;;;;;3.28;1.77;;;20.80;60.20;;;;;;5010526;28;20542;-74
2021/06/09 06:18:31;;;;;;;3.75;1.90;;;20.90;59.80;;;;;;5004228;28;20104;-75
2021/06/09 06:20:57;;;;;;;4.03;2.25;;;20.90;59.50;;;;;;5010292;28;20113;-74
2021/06/09 06:23:25;;;;;;;4.35;1.80;;;21.00;59.60;;;;;;5009102;28;20161;-75
2021/06/09 06:25:50;;;;;;;6.70;1.83;;;21.00;59.00;;;;;;5011927;28;20047;-71
2021/06/09 06:28:16;;;;;;;3.38;1.92;;;21.10;58.90;;;;;;5007869;28;20093;-72
2021/06/09 06:30:42;;;;;;;3.30;1.98;;;21.10;58.40;;;;;;5011474;28;20033;-71
2021/06/09 06:33:09;;;;;;;3.10;1.98;;;21.10;58.60;;;;;;5017960;28;20029;-72
2021/06/09 06:35:35;;;;;;;3.45;1.70;;;21.10;58.50;;;;;;4990679;28;20436;-72
2021/06/09 06:38:01;;;;;;;5.40;1.83;;;21.20;58.30;;;;;;4997482;28;20095;-71
2021/06/09 06:40:28;;;;;;;8.48;2.72;;;21.10;58.40;;;;;;5014283;28;20030;-72
2021/06/09 06:43:12;;;;;;;3.05;2.20;;;21.20;58.80;;;;;;5005259;28;20037;-72
2021/06/09 06:45:39;;;;;;;4.07;2.28;;;21.30;58.40;;;;;;5002577;28;20038;-71
2021/06/09 06:48:05;;;;;;;4.47;2.10;;;21.30;58.00;;;;;;5001634;28;20031;-71
2021/06/09 06:50:31;;;;;;;2.08;1.70;;;21.30;58.80;;;;;;5006955;28;20099;-71
2021/06/09 06:52:57;;;;;;;3.33;1.80;;;21.30;58.20;;;;;;5008848;28;20030;-71
2021/06/09 06:55:23;;;;;;;4.03;1.80;;;21.40;58.10;;;;;;5009937;28;20555;-72
2021/06/09 06:57:50;;;;;;;3.45;1.70;;;21.40;58.40;;;;;;5009684;28;20042;-72
2021/06/09 07:00:19;;;;;;;3.00;2.30;;;21.40;57.70;;;;;;5010648;28;20018;-72
2021/06/09 07:02:51;;;;;;;3.58;2.17;;;21.40;57.50;;;;;;5003902;28;20044;-71
2021/06/09 07:05:18;;;;;;;4.30;2.08;;;21.40;57.00;;;;;;4992092;28;20082;-71
2021/06/09 07:07:44;;;;;;;3.47;1.83;;;21.40;57.80;;;;;;5003633;28;20562;-72
2021/06/09 07:10:13;;;;;;;2.70;1.88;;;21.50;57.80;;;;;;5010542;28;20034;-72
2021/06/09 07:12:39;;;;;;;4.25;1.80;;;21.50;57.70;;;;;;5009488;28;20391;-72
2021/06/09 07:15:14;;;;;;;3.97;1.88;;;21.60;57.10;;;;;;5007704;28;20033;-71
2021/06/09 07:17:47;;;;;;;5.18;2.00;;;21.70;57.50;;;;;;5010207;28;20394;-72
2021/06/09 07:20:15;;;;;;;4.97;1.90;;;21.70;56.90;;;;;;5009099;28;20100;-72
2021/06/09 07:22:41;;;;;;;4.10;1.98;;;21.80;56.90;;;;;;5011758;28;20038;-72
2021/06/09 07:25:09;;;;;;;4.75;2.20;;;21.90;57.10;;;;;;5013774;28;20591;-73
2021/06/09 07:27:36;;;;;;;4.05;2.10;;;21.90;57.10;;;;;;5013459;28;20030;-72
2021/06/09 07:30:07;;;;;;;4.13;2.10;;;22.00;57.10;;;;;;5013667;28;20435;-72
2021/06/09 07:32:43;;;;;;;2.60;1.70;;;22.10;56.90;;;;;;5013042;28;20148;-73
2021/06/09 07:35:11;;;;;;;6.60;2.15;;;22.20;56.30;;;;;;5013535;28;20084;-72
2021/06/09 07:37:49;;;;;;;5.97;1.95;;;22.30;56.30;;;;;;5008695;28;20109;-72
2021/06/09 07:40:21;;;;;;;4.82;2.20;;;22.40;56.00;;;;;;5007086;28;20026;-72
2021/06/09 07:42:50;;;;;;;7.00;2.50;;;22.50;56.40;;;;;;5007627;28;20026;-70
2021/06/09 07:45:18;;;;;;;4.40;2.00;;;22.60;56.30;;;;;;5011647;28;20065;-71
2021/06/09 07:47:47;;;;;;;4.85;1.83;;;22.70;55.70;;;;;;5013235;28;20089;-71
2021/06/09 07:50:19;;;;;;;2.83;1.90;;;22.80;55.80;;;;;;5009556;28;20030;-71
2021/06/09 07:52:46;;;;;;;2.70;1.95;;;22.80;55.00;;;;;;4996891;28;20108;-71
2021/06/09 07:55:13;;;;;;;3.00;1.90;;;22.90;54.60;;;;;;5002284;28;20033;-71
2021/06/09 07:57:58;;;;;;;3.97;1.80;;;22.90;53.80;;;;;;5011465;28;20091;-72
2021/06/09 08:00:43;;;;;;;2.75;1.65;;;22.90;53.40;;;;;;5026186;28;20049;-72
2021/06/09 08:03:31;;;;;;;2.40;1.65;;;22.90;53.00;;;;;;5004258;28;20580;-72
2021/06/09 08:06:16;;;;;;;2.75;1.80;;;23.00;53.70;;;;;;5004625;28;20048;-71
2021/06/09 08:09:00;;;;;;;2.35;1.55;;;23.00;53.40;;;;;;5011176;28;20064;-72
2021/06/09 08:11:44;;;;;;;3.30;1.77;;;23.00;53.20;;;;;;5011519;28;20088;-72
2021/06/09 08:14:29;;;;;;;3.15;1.48;;;23.00;52.80;;;;;;5013763;28;20041;-72
2021/06/09 08:17:13;;;;;;;2.65;1.48;;;23.00;53.00;;;;;;5011438;28;20421;-72
2021/06/09 08:19:57;;;;;;;2.67;1.65;;;23.00;52.80;;;;;;4994245;28;20060;-72
2021/06/09 08:22:44;;;;;;;2.35;1.80;;;23.00;52.70;;;;;;5006697;28;20052;-72
2021/06/09 08:25:29;;;;;;;3.63;1.67;;;23.00;53.00;;;;;;5013814;28;20087;-72
2021/06/09 08:28:12;;;;;;;3.40;1.85;;;23.10;52.80;;;;;;5005579;28;20128;-72
2021/06/09 08:30:57;;;;;;;5.40;1.98;;;23.10;52.60;;;;;;5008019;28;20108;-72
2021/06/09 08:33:42;;;;;;;3.55;1.77;;;23.10;52.90;;;;;;4995225;28;20114;-72
2021/06/09 08:36:27;;;;;;;2.45;1.60;;;23.20;52.10;;;;;;5013400;28;20041;-72
2021/06/09 08:39:12;;;;;;;2.55;1.70;;;23.20;52.50;;;;;;5000012;28;20041;-72
2021/06/09 08:42:01;;;;;;;4.68;1.65;;;23.20;52.40;;;;;;5012739;28;20032;-72
2021/06/09 08:44:48;;;;;;;5.60;1.88;;;23.20;52.20;;;;;;5012232;28;20457;-72
2021/06/09 08:47:33;;;;;;;3.25;1.77;;;23.30;52.20;;;;;;5012415;28;20102;-71
2021/06/09 08:50:18;;;;;;;5.50;1.77;;;23.40;53.00;;;;;;5005551;28;20040;-71
2021/06/09 08:53:06;;;;;;;3.65;1.80;;;23.50;52.00;;;;;;5012162;28;20390;-73
2021/06/09 08:55:50;;;;;;;6.43;2.13;;;23.50;51.80;;;;;;5005665;28;20521;-72
2021/06/09 08:58:36;;;;;;;4.40;1.65;;;23.50;51.30;;;;;;5007567;28;20084;-72
2021/06/09 09:01:20;;;;;;;4.30;1.50;;;23.60;51.70;;;;;;5003250;28;20045;-72
2021/06/09 09:04:05;;;;;;;8.32;2.13;;;23.60;51.30;;;;;;5002880;28;20096;-72
2021/06/09 09:06:49;;;;;;;6.07;1.73;;;23.70;51.10;;;;;;4998234;28;20054;-72
2021/06/09 09:09:34;;;;;;;2.67;1.63;;;23.80;50.90;;;;;;5006402;28;20072;-72
2021/06/09 09:12:18;;;;;;;;;;;23.80;50.50;;;;;;5004873;28;20044;-72
2021/06/09 09:15:04;;;;;;;6.10;2.30;;;23.90;51.20;;;;;;5011024;28;19956;-72
2021/06/09 09:18:00;;;;;;;3.45;1.60;;;24.00;51.20;;;;;;5011055;28;20500;-72
2021/06/09 09:20:47;;;;;;;5.68;2.53;;;24.10;49.80;;;;;;5012736;28;20037;-72
2021/06/09 09:23:33;;;;;;;9.75;4.78;;;24.20;51.00;;;;;;5011516;28;20131;-72
2021/06/09 09:26:24;;;;;;;8.02;4.20;;;24.30;50.40;;;;;;5012530;28;20052;-72
2021/06/09 09:29:09;;;;;;;3.15;1.80;;;24.40;49.60;;;;;;5011837;28;20036;-70
2021/06/09 09:32:03;;;;;;;3.92;1.60;;;24.50;49.10;;;;;;5011151;28;20144;-71
2021/06/09 09:34:47;;;;;;;5.13;1.67;;;24.50;49.30;;;;;;5011667;28;20029;-70
2021/06/09 09:37:32;;;;;;;3.15;1.80;;;24.60;48.60;;;;;;5011503;28;20405;-71
2021/06/09 09:40:18;;;;;;;5.75;1.70;;;24.70;49.20;;;;;;5011675;28;20033;-71
2021/06/09 09:43:02;;;;;;;3.88;1.30;;;24.80;48.50;;;;;;5010736;28;20095;-71
2021/06/09 09:45:46;;;;;;;4.85;1.70;;;24.90;48.00;;;;;;5008836;28;20088;-71
2021/06/09 09:48:30;;;;;;;3.40;1.63;;;24.90;47.70;;;;;;5008782;28;20036;-70
2021/06/09 09:51:14;;;;;;;2.83;1.60;;;24.90;47.50;;;;;;5011173;28;20049;-71
2021/06/09 09:54:02;;;;;;;4.07;1.85;;;25.00;47.30;;;;;;4993555;28;20048;-71
2021/06/09 09:56:47;;;;;;;6.30;1.70;;;25.00;47.20;;;;;;4998131;28;20041;-72
2021/06/09 09:59:32;;;;;;;16.67;2.30;;;25.10;47.70;;;;;;5003087;28;20095;-72
2021/06/09 10:02:17;;;;;;;5.57;1.85;;;25.20;47.30;;;;;;5005813;28;20084;-72
2021/06/09 10:05:12;;;;;;;5.20;1.40;;;25.30;48.10;;;;;;5008097;28;20104;-72
2021/06/09 10:08:05;;;;;;;2.75;1.50;;;25.40;47.50;;;;;;5011320;28;20045;-72
2021/06/09 10:10:49;;;;;;;2.78;1.70;;;25.50;47.60;;;;;;5011006;28;20053;-71
2021/06/09 10:13:33;;;;;;;2.65;1.80;;;25.50;47.50;;;;;;5011301;28;20036;-72
2021/06/09 10:16:25;;;;;;;3.17;1.40;;;25.60;46.90;;;;;;5011114;28;20029;-71
2021/06/09 10:19:14;;;;;;;2.60;1.60;;;25.70;46.60;;;;;;5012062;28;20117;-72
2021/06/09 10:22:03;;;;;;;4.20;1.40;;;25.70;44.90;;;;;;5006776;28;20085;-72
2021/06/09 10:24:56;;;;;;;4.28;1.67;;;25.60;45.10;;;;;;5011612;28;20045;-72
2021/06/09 10:27:49;;;;;;;8.52;1.90;;;25.60;45.00;;;;;;5007555;28;20104;-72
2021/06/09 10:30:34;;;;;;;3.97;1.85;;;25.50;45.10;;;;;;5010590;28;20049;-73
2021/06/09 10:33:19;;;;;;;6.38;1.77;;;25.60;45.70;;;;;;5009850;28;20119;-74
2021/06/09 10:36:04;;;;;;;3.58;1.55;;;25.60;45.60;;;;;;5011797;28;20037;-72
2021/06/09 10:38:48;;;;;;;3.22;1.67;;;25.60;45.60;;;;;;5006905;28;20032;-72
2021/06/09 10:41:33;;;;;;;8.48;1.63;;;25.60;45.50;;;;;;5010425;28;20084;-72
2021/06/09 10:44:19;;;;;;;;;;;25.60;46.10;;;;;;5010893;28;20497;-72
2021/06/09 10:47:09;;;;;;;4.75;1.83;;;25.70;45.30;;;;;;5015076;28;19967;-71
2021/06/09 10:49:53;;;;;;;3.08;1.65;;;25.70;45.40;;;;;;5014127;28;20072;-71
2021/06/09 10:52:39;;;;;;;3.42;1.83;;;25.70;46.10;;;;;;5015861;28;20045;-71
2021/06/09 10:55:23;;;;;;;3.70;1.90;;;25.80;46.00;;;;;;5016857;28;20045;-71
2021/06/09 10:58:08;;;;;;;2.90;1.48;;;25.90;46.00;;;;;;5015669;28;20566;-71
2021/06/09 11:00:57;;;;;;;2.53;1.50;;;26.00;44.20;;;;;;5015472;28;20183;-71
2021/06/09 11:03:45;;;;;;;2.45;1.80;;;25.90;44.50;;;;;;5015317;28;20064;-71
2021/06/09 11:06:49;;;;;;;5.45;1.63;;;25.90;45.20;;;;;;5014014;28;20044;-70
2021/06/09 11:09:33;;;;;;;3.35;1.50;;;26.00;45.80;;;;;;5013540;28;20045;-72
2021/06/09 11:12:23;;;;;;;1.80;1.42;;;26.10;44.60;;;;;;5012249;28;20080;-71
2021/06/09 11:15:12;;;;;;;2.30;1.80;;;26.10;44.20;;;;;;5015266;28;20647;-70
2021/06/09 11:17:57;;;;;;;3.47;1.90;;;26.20;44.20;;;;;;5014065;28;20045;-71
2021/06/09 11:20:47;;;;;;;3.92;1.70;;;26.10;43.90;;;;;;5015115;28;20037;-71
2021/06/09 11:23:34;;;;;;;4.97;2.00;;;26.10;43.90;;;;;;5013639;28;20044;-72
2021/06/09 11:26:27;;;;;;;6.65;3.40;;;26.10;44.30;;;;;;5002561;28;20092;-69
2021/06/09 11:29:27;;;;;;;6.20;1.70;;;26.10;43.50;;;;;;5013270;28;20048;-71
2021/06/09 11:32:21;;;;;;;4.90;1.60;;;26.10;43.80;;;;;;5010978;28;20176;-70
2021/06/09 11:35:05;;;;;;;5.32;2.08;;;26.20;43.70;;;;;;5014717;28;20083;-70
2021/06/09 11:38:12;;;;;;;2.03;1.33;;;26.20;44.20;;;;;;5003347;28;20032;-70
2021/06/09 11:40:59;;;;;;;4.25;1.77;;;26.30;43.50;;;;;;5010401;28;20092;-72
2021/06/09 11:43:45;;;;;;;3.88;1.52;;;26.30;43.40;;;;;;5005888;28;20034;-76
2021/06/09 11:46:34;;;;;;;6.60;1.80;;;26.40;44.10;;;;;;5012834;28;20041;-75
2021/06/09 11:49:24;;;;;;;3.00;1.88;;;26.50;44.00;;;;;;5003246;28;20037;-75
2021/06/09 11:52:08;;;;;;;6.80;1.60;;;26.50;43.50;;;;;;5013862;28;20125;-74
2021/06/09 11:55:10;;;;;;;6.47;1.80;;;26.60;43.10;;;;;;5013873;28;20109;-76
2021/06/09 11:58:09;;;;;;;2.58;1.60;;;26.60;42.20;;;;;;5007721;28;20188;-77
2021/06/09 12:01:08;;;;;;;7.35;2.55;;;26.50;42.90;;;;;;4995087;28;20041;-76
2021/06/09 12:04:28;;;;;;;6.82;2.55;;;26.60;43.50;;;;;;5003034;28;20211;-77
2021/06/09 12:07:21;;;;;;;6.38;1.95;;;26.60;43.80;;;;;;5013861;28;20131;-77
2021/06/09 12:10:10;;;;;;;4.55;1.90;;;26.80;43.40;;;;;;5014357;28;20474;-77
2021/06/09 12:12:55;;;;;;;5.53;1.48;;;26.90;43.90;;;;;;5013225;28;20076;-78
2021/06/09 12:15:39;;;;;;;5.28;2.15;;;27.00;44.10;;;;;;5010959;28;20112;-77
2021/06/09 12:18:28;;;;;;;6.50;1.77;;;27.20;44.00;;;;;;5009004;28;20037;-77
2021/06/09 12:21:17;;;;;;;4.70;2.08;;;27.40;44.30;;;;;;5003050;28;20037;-77
2021/06/09 12:24:01;;;;;;;3.10;1.58;;;27.40;44.10;;;;;;5013479;28;20033;-76
2021/06/09 12:26:58;;;;;;;2.75;1.60;;;27.40;42.70;;;;;;5017658;28;20045;-76
2021/06/09 12:29:42;;;;;;;3.90;1.70;;;27.30;42.80;;;;;;5019955;28;20057;-76
2021/06/09 12:32:30;;;;;;;3.58;1.65;;;27.20;42.20;;;;;;5023511;28;20084;-76
2021/06/09 12:35:15;;;;;;;4.03;1.95;;;27.10;42.40;;;;;;5020435;28;20041;-76
2021/06/09 12:38:02;;;;;;;3.35;2.00;;;27.10;42.60;;;;;;5021754;28;20040;-76
2021/06/09 12:40:48;;;;;;;4.53;1.70;;;27.00;42.40;;;;;;5023570;28;20509;-76
2021/06/09 12:43:32;;;;;;;3.55;1.55;;;27.10;42.30;;;;;;5010160;28;20061;-77
2021/06/09 12:46:19;;;;;;;;;;;27.10;42.00;;;;;;5008567;28;20044;-77
2021/06/09 12:49:03;;;;;;;3.00;1.73;;;27.30;42.70;;;;;;5001699;28;19916;-76
2021/06/09 12:52:11;;;;;;;2.67;1.75;;;27.50;42.30;;;;;;5005532;28;20119;-76
2021/06/09 12:54:55;;;;;;;6.80;2.10;;;27.60;42.70;;;;;;5005379;28;20398;-77
2021/06/09 12:57:39;;;;;;;4.70;2.38;;;27.90;41.90;;;;;;4995976;28;20041;-77
2021/06/09 13:00:36;;;;;;;2.53;1.63;;;28.10;42.40;;;;;;5001038;28;20546;-77
2021/06/09 13:03:27;;;;;;;6.05;1.90;;;28.20;42.30;;;;;;5002178;28;20131;-77
2021/06/09 13:06:20;;;;;;;6.13;2.10;;;28.40;42.10;;;;;;4998739;28;20057;-77
2021/06/09 13:09:04;;;;;;;5.22;1.50;;;28.70;42.80;;;;;;5006008;28;20092;-78
2021/06/09 13:11:48;;;;;;;6.30;1.75;;;28.90;42.30;;;;;;5002567;28;20040;-77
2021/06/09 13:14:41;;;;;;;3.75;1.98;;;28.80;42.50;;;;;;5020528;28;20617;-78
2021/06/09 13:17:26;;;;;;;4.03;1.90;;;28.70;41.30;;;;;;5004472;28;20583;-77
2021/06/09 13:20:11;;;;;;;4.38;2.00;;;28.50;40.70;;;;;;5007284;28;20038;-77
2021/06/09 13:22:55;;;;;;;4.25;1.98;;;28.30;40.80;;;;;;5018104;28;20512;-77
2021/06/09 13:25:39;;;;;;;2.65;1.60;;;28.10;41.10;;;;;;4997180;28;20053;-78
2021/06/09 13:28:31;;;;;;;3.33;1.63;;;28.00;41.20;;;;;;5002376;28;20068;-76
2021/06/09 13:31:15;;;;;;;5.18;1.80;;;28.00;42.00;;;;;;5009508;28;20029;-77
2021/06/09 13:34:00;;;;;;;3.42;1.85;;;27.90;42.00;;;;;;5001136;28;20052;-76
2021/06/09 13:36:47;;;;;;;3.58;1.70;;;27.70;41.80;;;;;;5002671;28;20120;-77
2021/06/09 13:39:44;;;;;;;2.60;1.58;;;27.70;41.60;;;;;;5006056;28;20055;-77
2021/06/09 13:42:32;;;;;;;2.47;1.40;;;27.60;41.80;;;;;;5009371;28;20083;-77
2021/06/09 13:45:19;;;;;;;4.53;1.88;;;27.60;42.40;;;;;;5001138;28;20466;-77
2021/06/09 13:48:21;;;;;;;5.72;1.90;;;27.70;42.80;;;;;;5003806;28;20084;-76
2021/06/09 13:51:12;;;;;;;2.92;2.05;;;27.90;42.40;;;;;;5005470;28;20037;-76
2021/06/09 13:53:57;;;;;;;2.95;1.65;;;28.10;42.90;;;;;;5007105;28;20087;-76
2021/06/09 13:56:44;;;;;;;3.28;1.92;;;28.30;41.90;;;;;;4997722;28;20454;-77
2021/06/09 13:59:23;;;;;;;5.13;1.88;;;28.60;42.30;;;;;;5005515;28;20030;-77
2021/06/09 14:02:14;;;;;;;3.25;1.67;;;28.90;42.00;;;;;;5007575;28;20076;-76
2021/06/09 14:05:20;;;;;;;3.08;1.80;;;29.10;40.10;;;;;;4996120;28;20065;-76
2021/06/09 14:08:05;;;;;;;6.22;1.60;;;29.30;41.40;;;;;;4996011;28;20111;-77
2021/06/09 14:10:52;;;;;;;2.08;1.65;;;29.50;41.10;;;;;;5001081;28;20172;-77
2021/06/09 14:13:36;;;;;;;2.97;1.85;;;29.80;41.00;;;;;;4999520;28;20056;-77
2021/06/09 14:16:20;;;;;;;3.00;1.85;;;29.90;40.30;;;;;;4996835;28;20045;-77
2021/06/09 14:19:07;;;;;;;3.28;1.63;;;30.10;40.20;;;;;;5000376;28;20033;-76
2021/06/09 14:21:51;;;;;;;3.38;1.80;;;30.40;40.20;;;;;;5006370;28;20040;-76
2021/06/09 14:24:39;;;;;;;2.55;1.50;;;30.50;39.80;;;;;;5003107;28;20104;-77